Bethlehem, Indiana
Current Conditions -  °F | °C
As of 5:53 AM on Saturday 22 Nov 2014 (Local Time) from KLOU Reporting Station
Light Rain Light Rain  
Wind Chill: 37°   Ceiling: 7500
Heat Index: 41°   Visibility: 10mi
Dew Point: 26°   Wind: 6mph
Humidity: 55%   Direction: 150°SSE
Pressure: 30.3"   Gusts: NA
Location:  38.54°N, 85.42°W
Report Text: KLOU 221053Z AUTO 15005KT 10SM -RA FEW050 BKN075 OVC085 05/M03 A3030 RMK AO2 RAB00E12B53 SLP264 P0000 T00501033
Loading
Personal Weather Stations






























Interactive Weather Map New forecast layout! Learn more

10-Day Weather Forecast

Advertisements
Track Severe Weather on mobile